FYGA4: White River At Fayetteville, AR

                                SHEF ID:       FYGA4     White River near Fayetteville, A
STATION TYPE: Stream Gauge

PRECIP STAGE RIV-FLOW WTR-TEMP DIS-OXY PH CONDUCT BAT-LOAD
in ft cfs F mg/l su umho/cm volt
Ccp-Rev Ccp-Rev Ccp-Rev Ccp-Rev Ccp-Rev Ccp-Rev Ccp-Rev Ccp-Rev
(America/Chicago)
06/02 00:00 0.00 2.32 149 74.82 6.67 7.53 136 12.81
06/02 01:00 0.00 2.31 146 74.55 6.65 7.52 135 12.73
06/02 02:00 0.00 2.29 141 74.37 6.66 7.51 135 12.73
06/02 03:00 0.01 2.28 139 74.12 6.65 7.50 134 12.73
06/02 04:00 0.00 2.27 137 73.96 6.64 7.51 133 12.65
06/02 05:00 0.00 2.26 134 73.78 6.65 7.47 132 12.65
06/02 06:00 0.00 2.25 132 73.63 6.65 7.49 132 12.57
06/02 07:00 0.00 2.24 129 73.47 6.66 7.48 132 12.57
06/02 08:00 0.00 2.23 127 73.47 6.66 7.49 131 12.89
06/02 09:00 0.00 2.23 127 73.62 6.77 7.50 131 13.60
06/02 10:00 0.00 2.22 125 74.32 6.93 7.52 131 13.68
06/02 11:00 0.00 2.20 120 75.65 7.14 7.55 130 13.60
06/02 12:00 0.00 2.20 120 76.98 7.29 7.57 130 13.44
06/02 13:00 0.00 2.20 120 77.61 7.18 7.57 131 13.44
06/02 14:00 0.00 2.22 125 79.03 7.35 7.61 130 13.37
06/02 15:00 0.00 2.21 123 80.13 7.36 7.64 129 13.29
06/02 16:00 0.00 2.21 123 80.58 7.28 7.64 129 13.29
06/02 17:00 0.00 2.19 118 80.91 7.16 7.66 129 13.21
06/02 18:00 0.00 2.19 118 80.71 6.94 7.63 130 13.05
06/02 19:00 0.00 2.17 114 80.22 6.68 7.59 131 12.97
06/02 20:00 0.00 2.16 112 79.59 6.46 7.56 133 12.97
06/02 21:00 0.00 2.16 112 78.94 6.30 7.53 133 12.89
06/02 22:00 0.00 2.18 116 78.48 6.25 7.50 133 12.81
06/02 23:00 0.00 2.15 110 78.08 6.19 7.50 133 12.81
Data processed at Mon 03Jun2024 04:10 GMT

Parsing this webpage?

Checkout our new Data API! CWMSDataAPI (CDA)

Timeseries IDs (TSIDs)

TSIDs used from left to right in the data table
FAYE.Precip-Inc.Total.1Hour.1Hour.Ccp-Rev
FAYE.Stage.Inst.1Hour.0.Ccp-Rev
FAYE.Flow.Inst.1Hour.0.Ccp-Rev
FAYE.Temp-Water.Inst.1Hour.0.Ccp-Rev
FAYE.Conc-DO.Inst.1Hour.0.Ccp-Rev
FAYE.pH.Inst.1Hour.0.Ccp-Rev
FAYE.Cond-Water.Inst.1Hour.0.Ccp-Rev
FAYE.Volt-Battery Load.Inst.1Hour.0.Ccp-Rev

                            

All information presented herein is the property of the government of the United States of America and may be revised or deleted at any time without prior notice. Dissemination of this information without the expressed written consent of the Public Affairs Office, Tulsa District U.S. Army Corps of Engineers is strictly prohibited. These data are gathered electronically and, as presented, have NOT undergone any form of quality control. These data are NOT guaranteed to be valid or correct.